sensor_id;sensor_type;location;lat;lon;timestamp;noise_LAeq;noise_LA_min;noise_LA_max;noise_LA01;noise_LA95
42701;Laerm;28316;49.504;8.526;2023-02-15T00:01:38;37.08;33.44;39.34;;
42701;Laerm;28316;49.504;8.526;2023-02-15T00:04:05;37.08;33.90;39.81;;
42701;Laerm;28316;49.504;8.526;2023-02-15T00:06:31;37.13;33.90;39.46;;
42701;Laerm;28316;49.504;8.526;2023-02-15T00:08:58;37.14;33.90;39.70;;
42701;Laerm;28316;49.504;8.526;2023-02-15T00:11:24;37.12;33.90;39.58;;
42701;Laerm;28316;49.504;8.526;2023-02-15T00:14:16;37.12;33.90;39.58;;
42701;Laerm;28316;49.504;8.526;2023-02-15T00:16:44;37.10;34.31;39.81;;
42701;Laerm;28316;49.504;8.526;2023-02-15T00:19:11;37.10;33.55;39.58;;
42701;Laerm;28316;49.504;8.526;2023-02-15T00:21:39;37.11;33.44;40.33;;
42701;Laerm;28316;49.504;8.526;2023-02-15T00:24:08;37.12;33.90;39.46;;
42701;Laerm;28316;49.504;8.526;2023-02-15T00:26:34;37.08;33.90;39.70;;
42701;Laerm;28316;49.504;8.526;2023-02-15T00:29:01;37.12;32.93;39.57;;
42701;Laerm;28316;49.504;8.526;2023-02-15T00:31:29;37.11;32.93;39.81;;
42701;Laerm;28316;49.504;8.526;2023-02-15T00:34:10;37.10;33.90;39.70;;
42701;Laerm;28316;49.504;8.526;2023-02-15T00:36:37;37.11;32.93;39.70;;
42701;Laerm;28316;49.504;8.526;2023-02-15T00:39:03;37.11;33.90;39.81;;
42701;Laerm;28316;49.504;8.526;2023-02-15T00:41:31;37.10;33.90;39.81;;
42701;Laerm;28316;49.504;8.526;2023-02-15T00:43:57;37.07;33.44;39.58;;
42701;Laerm;28316;49.504;8.526;2023-02-15T00:46:23;37.08;33.90;39.70;;
42701;Laerm;28316;49.504;8.526;2023-02-15T00:48:49;37.09;33.44;39.58;;
42701;Laerm;28316;49.504;8.526;2023-02-15T00:51:16;37.07;33.90;39.58;;
42701;Laerm;28316;49.504;8.526;2023-02-15T00:53:43;37.08;33.90;39.70;;
42701;Laerm;28316;49.504;8.526;2023-02-15T00:56:10;37.09;33.44;39.58;;
42701;Laerm;28316;49.504;8.526;2023-02-15T00:58:36;37.07;32.93;39.58;;
42701;Laerm;28316;49.504;8.526;2023-02-15T01:01:11;37.09;33.44;39.70;;
42701;Laerm;28316;49.504;8.526;2023-02-15T01:03:38;37.05;33.90;39.34;;
42701;Laerm;28316;49.504;8.526;2023-02-15T01:06:04;37.06;33.44;39.70;;
42701;Laerm;28316;49.504;8.526;2023-02-15T01:08:30;37.08;33.44;39.81;;
42701;Laerm;28316;49.504;8.526;2023-02-15T01:10:57;37.07;33.90;39.46;;
42701;Laerm;28316;49.504;8.526;2023-02-15T01:13:27;37.06;33.44;39.68;;
42701;Laerm;28316;49.504;8.526;2023-02-15T01:15:54;37.08;33.90;39.70;;
42701;Laerm;28316;49.504;8.526;2023-02-15T01:18:20;37.07;33.90;39.58;;
42701;Laerm;28316;49.504;8.526;2023-02-15T01:20:46;37.08;33.44;39.92;;
42701;Laerm;28316;49.504;8.526;2023-02-15T01:23:13;37.08;33.90;39.92;;
42701;Laerm;28316;49.504;8.526;2023-02-15T01:25:38;37.06;32.93;39.81;;
42701;Laerm;28316;49.504;8.526;2023-02-15T01:28:04;37.04;33.90;39.46;;
42701;Laerm;28316;49.504;8.526;2023-02-15T01:30:31;37.06;33.44;39.99;;
42701;Laerm;28316;49.504;8.526;2023-02-15T01:32:57;37.05;32.93;39.70;;
42701;Laerm;28316;49.504;8.526;2023-02-15T01:35:23;37.04;33.44;39.58;;
42701;Laerm;28316;49.504;8.526;2023-02-15T01:37:49;37.05;33.44;39.46;;
42701;Laerm;28316;49.504;8.526;2023-02-15T01:40:17;37.03;33.44;39.92;;
42701;Laerm;28316;49.504;8.526;2023-02-15T01:42:44;37.05;33.44;39.70;;
42701;Laerm;28316;49.504;8.526;2023-02-15T01:45:30;37.02;33.44;39.70;;
42701;Laerm;28316;49.504;8.526;2023-02-15T01:48:08;37.04;33.90;39.46;;
42701;Laerm;28316;49.504;8.526;2023-02-15T01:50:41;37.03;32.93;39.58;;
42701;Laerm;28316;49.504;8.526;2023-02-15T01:53:38;37.02;32.35;39.70;;
42701;Laerm;28316;49.504;8.526;2023-02-15T01:56:13;36.99;33.44;39.58;;
42701;Laerm;28316;49.504;8.526;2023-02-15T01:58:41;36.99;32.35;39.58;;
42701;Laerm;28316;49.504;8.526;2023-02-15T02:01:08;37.00;31.68;39.70;;
42701;Laerm;28316;49.504;8.526;2023-02-15T02:06:26;37.00;33.44;39.92;;
42701;Laerm;28316;49.504;8.526;2023-02-15T02:08:54;37.02;33.44;39.46;;
42701;Laerm;28316;49.504;8.526;2023-02-15T02:11:21;37.01;33.44;39.58;;
42701;Laerm;28316;49.504;8.526;2023-02-15T02:13:47;37.00;33.44;39.70;;
42701;Laerm;28316;49.504;8.526;2023-02-15T02:31:43;36.95;32.35;39.58;;
42701;Laerm;28316;49.504;8.526;2023-02-15T02:34:32;36.94;33.44;39.46;;
42701;Laerm;28316;49.504;8.526;2023-02-15T02:37:30;36.97;32.93;39.58;;
42701;Laerm;28316;49.504;8.526;2023-02-15T02:43:00;36.96;33.44;39.34;;
42701;Laerm;28316;49.504;8.526;2023-02-15T02:45:55;36.95;32.93;39.46;;
42701;Laerm;28316;49.504;8.526;2023-02-15T02:48:26;36.97;33.44;39.46;;
42701;Laerm;28316;49.504;8.526;2023-02-15T02:50:53;36.95;33.90;39.46;;
42701;Laerm;28316;49.504;8.526;2023-02-15T02:53:19;36.95;33.44;39.58;;
42701;Laerm;28316;49.504;8.526;2023-02-15T02:55:54;36.95;32.93;39.92;;
42701;Laerm;28316;49.504;8.526;2023-02-15T02:58:44;36.97;33.44;39.46;;
42701;Laerm;28316;49.504;8.526;2023-02-15T03:03:57;36.91;33.90;40.33;;
42701;Laerm;28316;49.504;8.526;2023-02-15T03:06:46;36.96;33.44;39.70;;
42701;Laerm;28316;49.504;8.526;2023-02-15T03:09:37;36.96;32.93;39.70;;
42701;Laerm;28316;49.504;8.526;2023-02-15T03:12:30;36.93;32.93;39.58;;
42701;Laerm;28316;49.504;8.526;2023-02-15T03:15:13;36.96;33.44;39.58;;
42701;Laerm;28316;49.504;8.526;2023-02-15T03:17:52;36.93;32.93;40.53;;
42701;Laerm;28316;49.504;8.526;2023-02-15T03:20:31;36.93;32.93;39.58;;
42701;Laerm;28316;49.504;8.526;2023-02-15T03:23:11;36.94;32.35;39.81;;
42701;Laerm;28316;49.504;8.526;2023-02-15T03:25:45;36.91;32.93;39.70;;
42701;Laerm;28316;49.504;8.526;2023-02-15T03:28:27;36.94;33.44;39.46;;
42701;Laerm;28316;49.504;8.526;2023-02-15T03:30:57;36.92;33.44;39.58;;
42701;Laerm;28316;49.504;8.526;2023-02-15T03:33:26;36.90;33.44;39.34;;
42701;Laerm;28316;49.504;8.526;2023-02-15T03:36:04;36.89;32.35;39.58;;
42701;Laerm;28316;49.504;8.526;2023-02-15T03:39:34;36.88;33.44;39.34;;
42701;Laerm;28316;49.504;8.526;2023-02-15T03:41:46;36.87;32.93;39.34;;
42701;Laerm;28316;49.504;8.526;2023-02-15T03:44:32;36.86;33.44;39.70;;
42701;Laerm;28316;49.504;8.526;2023-02-15T03:47:09;36.84;32.00;39.58;;
42701;Laerm;28316;49.504;8.526;2023-02-15T03:50:15;36.85;32.35;39.58;;
42701;Laerm;28316;49.504;8.526;2023-02-15T03:52:59;36.86;32.93;39.46;;
42701;Laerm;28316;49.504;8.526;2023-02-15T03:55:28;36.83;30.89;39.21;;
42701;Laerm;28316;49.504;8.526;2023-02-15T03:57:54;36.83;32.35;39.81;;
42701;Laerm;28316;49.504;8.526;2023-02-15T04:00:48;36.84;32.35;39.68;;
42701;Laerm;28316;49.504;8.526;2023-02-15T04:03:45;36.80;31.68;39.58;;
42701;Laerm;28316;49.504;8.526;2023-02-15T04:06:13;36.82;32.93;39.34;;
42701;Laerm;28316;49.504;8.526;2023-02-15T04:08:39;36.80;31.68;39.70;;
42701;Laerm;28316;49.504;8.526;2023-02-15T04:11:23;36.82;32.93;39.46;;
42701;Laerm;28316;49.504;8.526;2023-02-15T04:13:49;36.81;32.93;39.58;;
42701;Laerm;28316;49.504;8.526;2023-02-15T04:16:23;36.82;32.93;39.46;;
42701;Laerm;28316;49.504;8.526;2023-02-15T04:18:49;36.79;32.93;39.34;;
42701;Laerm;28316;49.504;8.526;2023-02-15T04:21:33;36.80;32.93;39.46;;
42701;Laerm;28316;49.504;8.526;2023-02-15T04:24:18;36.81;32.93;39.70;;
42701;Laerm;28316;49.504;8.526;2023-02-15T04:27:03;36.78;32.93;39.46;;
42701;Laerm;28316;49.504;8.526;2023-02-15T04:29:30;36.80;32.35;39.81;;
42701;Laerm;28316;49.504;8.526;2023-02-15T04:31:59;36.78;32.93;39.46;;
42701;Laerm;28316;49.504;8.526;2023-02-15T04:34:25;36.81;32.35;39.81;;
42701;Laerm;28316;49.504;8.526;2023-02-15T04:36:51;36.81;31.68;39.46;;
42701;Laerm;28316;49.504;8.526;2023-02-15T04:39:18;36.81;32.35;39.58;;
42701;Laerm;28316;49.504;8.526;2023-02-15T04:41:45;36.79;31.68;39.58;;
42701;Laerm;28316;49.504;8.526;2023-02-15T04:44:11;36.77;32.93;39.58;;
42701;Laerm;28316;49.504;8.526;2023-02-15T04:46:37;36.83;32.35;39.46;;
42701;Laerm;28316;49.504;8.526;2023-02-15T04:49:03;36.81;32.35;39.34;;
42701;Laerm;28316;49.504;8.526;2023-02-15T04:51:29;36.79;32.93;39.70;;
42701;Laerm;28316;49.504;8.526;2023-02-15T04:53:55;36.80;33.44;39.46;;
42701;Laerm;28316;49.504;8.526;2023-02-15T04:56:22;36.82;32.93;39.46;;
42701;Laerm;28316;49.504;8.526;2023-02-15T04:58:48;36.82;32.35;39.46;;
42701;Laerm;28316;49.504;8.526;2023-02-15T05:01:14;36.85;32.93;39.58;;
42701;Laerm;28316;49.504;8.526;2023-02-15T05:03:40;36.81;30.89;39.81;;
42701;Laerm;28316;49.504;8.526;2023-02-15T05:06:06;36.84;32.93;39.70;;
42701;Laerm;28316;49.504;8.526;2023-02-15T05:08:32;36.81;31.68;39.21;;
42701;Laerm;28316;49.504;8.526;2023-02-15T05:10:58;36.83;33.44;39.58;;
42701;Laerm;28316;49.504;8.526;2023-02-15T05:13:24;36.82;32.35;39.58;;
42701;Laerm;28316;49.504;8.526;2023-02-15T05:15:53;36.81;31.68;39.46;;
42701;Laerm;28316;49.504;8.526;2023-02-15T05:18:21;36.81;32.93;39.34;;
42701;Laerm;28316;49.504;8.526;2023-02-15T05:20:47;36.83;32.35;39.46;;
42701;Laerm;28316;49.504;8.526;2023-02-15T05:23:13;36.82;32.35;39.34;;
42701;Laerm;28316;49.504;8.526;2023-02-15T05:25:39;36.82;32.35;39.34;;
42701;Laerm;28316;49.504;8.526;2023-02-15T05:28:26;36.80;31.68;39.58;;
42701;Laerm;28316;49.504;8.526;2023-02-15T05:31:06;36.86;31.68;39.58;;
42701;Laerm;28316;49.504;8.526;2023-02-15T05:33:33;36.84;32.35;39.92;;
42701;Laerm;28316;49.504;8.526;2023-02-15T05:36:00;36.81;32.93;39.92;;
42701;Laerm;28316;49.504;8.526;2023-02-15T05:38:26;36.81;32.93;39.58;;
42701;Laerm;28316;49.504;8.526;2023-02-15T05:40:52;36.81;32.35;39.21;;
42701;Laerm;28316;49.504;8.526;2023-02-15T05:43:19;36.78;32.35;39.81;;
42701;Laerm;28316;49.504;8.526;2023-02-15T05:45:51;36.81;31.68;39.46;;
42701;Laerm;28316;49.504;8.526;2023-02-15T05:48:19;36.81;33.44;39.34;;
42701;Laerm;28316;49.504;8.526;2023-02-15T05:50:46;36.82;32.93;39.58;;
42701;Laerm;28316;49.504;8.526;2023-02-15T05:53:12;36.79;32.93;39.58;;
42701;Laerm;28316;49.504;8.526;2023-02-15T05:55:41;36.79;32.93;39.34;;
42701;Laerm;28316;49.504;8.526;2023-02-15T05:58:07;36.81;32.35;39.46;;
42701;Laerm;28316;49.504;8.526;2023-02-15T06:00:34;36.79;31.68;39.34;;
42701;Laerm;28316;49.504;8.526;2023-02-15T06:03:00;36.80;33.44;40.03;;
42701;Laerm;28316;49.504;8.526;2023-02-15T06:05:26;36.76;32.35;39.70;;
42701;Laerm;28316;49.504;8.526;2023-02-15T06:07:51;36.79;32.93;39.70;;
42701;Laerm;28316;49.504;8.526;2023-02-15T06:10:17;36.78;32.93;39.58;;
42701;Laerm;28316;49.504;8.526;2023-02-15T06:12:44;36.76;32.35;39.81;;
42701;Laerm;28316;49.504;8.526;2023-02-15T06:15:10;36.77;32.58;39.46;;
42701;Laerm;28316;49.504;8.526;2023-02-15T06:17:36;36.76;31.68;39.34;;
42701;Laerm;28316;49.504;8.526;2023-02-15T06:20:03;36.75;32.00;39.46;;
42701;Laerm;28316;49.504;8.526;2023-02-15T06:22:29;36.76;32.93;39.46;;
42701;Laerm;28316;49.504;8.526;2023-02-15T06:24:54;36.78;32.35;39.70;;
42701;Laerm;28316;49.504;8.526;2023-02-15T06:27:20;36.75;32.93;39.21;;
42701;Laerm;28316;49.504;8.526;2023-02-15T06:29:46;36.75;32.35;39.58;;
42701;Laerm;28316;49.504;8.526;2023-02-15T06:32:12;36.75;32.93;39.70;;
42701;Laerm;28316;49.504;8.526;2023-02-15T06:34:37;36.74;32.93;39.35;;
42701;Laerm;28316;49.504;8.526;2023-02-15T06:37:03;36.75;32.93;39.21;;
42701;Laerm;28316;49.504;8.526;2023-02-15T06:39:29;36.74;31.68;39.46;;
42701;Laerm;28316;49.504;8.526;2023-02-15T06:41:55;36.76;32.35;39.34;;
42701;Laerm;28316;49.504;8.526;2023-02-15T06:44:20;36.72;30.89;39.58;;
42701;Laerm;28316;49.504;8.526;2023-02-15T06:46:46;36.75;31.68;39.58;;
42701;Laerm;28316;49.504;8.526;2023-02-15T06:49:12;36.76;32.35;39.34;;
42701;Laerm;28316;49.504;8.526;2023-02-15T06:51:37;36.76;32.35;39.21;;
42701;Laerm;28316;49.504;8.526;2023-02-15T06:54:03;36.74;32.93;39.58;;
42701;Laerm;28316;49.504;8.526;2023-02-15T06:56:29;36.75;32.35;39.34;;
42701;Laerm;28316;49.504;8.526;2023-02-15T06:58:55;36.77;32.35;39.58;;
42701;Laerm;28316;49.504;8.526;2023-02-15T07:01:21;36.76;32.35;39.34;;
42701;Laerm;28316;49.504;8.526;2023-02-15T07:03:47;36.76;32.58;39.58;;
42701;Laerm;28316;49.504;8.526;2023-02-15T07:06:12;36.76;32.35;39.57;;
42701;Laerm;28316;49.504;8.526;2023-02-15T07:08:39;36.77;32.93;39.46;;
42701;Laerm;28316;49.504;8.526;2023-02-15T07:11:05;36.76;31.68;39.58;;
42701;Laerm;28316;49.504;8.526;2023-02-15T07:13:50;36.76;32.93;39.57;;
42701;Laerm;28316;49.504;8.526;2023-02-15T07:16:18;36.76;32.93;39.34;;
42701;Laerm;28316;49.504;8.526;2023-02-15T07:18:44;36.78;32.93;39.21;;
42701;Laerm;28316;49.504;8.526;2023-02-15T07:21:10;36.77;32.35;39.46;;
42701;Laerm;28316;49.504;8.526;2023-02-15T07:23:38;36.75;31.68;39.21;;
42701;Laerm;28316;49.504;8.526;2023-02-15T07:26:05;36.77;31.68;39.35;;
42701;Laerm;28316;49.504;8.526;2023-02-15T07:28:35;36.77;32.93;39.46;;
42701;Laerm;28316;49.504;8.526;2023-02-15T07:31:03;36.78;32.93;39.70;;
42701;Laerm;28316;49.504;8.526;2023-02-15T07:33:33;36.78;32.35;39.58;;
42701;Laerm;28316;49.504;8.526;2023-02-15T07:36:01;36.79;32.93;39.46;;
42701;Laerm;28316;49.504;8.526;2023-02-15T07:38:33;36.78;33.44;39.58;;
42701;Laerm;28316;49.504;8.526;2023-02-15T07:41:04;36.80;32.93;39.34;;
42701;Laerm;28316;49.504;8.526;2023-02-15T07:43:37;36.80;32.93;39.70;;
42701;Laerm;28316;49.504;8.526;2023-02-15T07:46:06;36.80;30.89;39.46;;
42701;Laerm;28316;49.504;8.526;2023-02-15T07:48:34;36.80;33.44;39.58;;
42701;Laerm;28316;49.504;8.526;2023-02-15T07:51:01;36.80;32.35;39.21;;
42701;Laerm;28316;49.504;8.526;2023-02-15T07:53:28;36.82;32.93;39.21;;
42701;Laerm;28316;49.504;8.526;2023-02-15T07:55:54;36.78;32.93;39.58;;
42701;Laerm;28316;49.504;8.526;2023-02-15T07:58:20;36.83;31.68;39.21;;
42701;Laerm;28316;49.504;8.526;2023-02-15T08:00:46;36.85;32.35;39.34;;
42701;Laerm;28316;49.504;8.526;2023-02-15T08:03:27;36.85;32.93;39.81;;
42701;Laerm;28316;49.504;8.526;2023-02-15T08:05:59;36.86;32.35;39.92;;
42701;Laerm;28316;49.504;8.526;2023-02-15T08:08:26;36.83;32.35;39.46;;
42701;Laerm;28316;49.504;8.526;2023-02-15T08:13:53;36.88;32.93;39.58;;
42701;Laerm;28316;49.504;8.526;2023-02-15T08:16:35;36.91;33.44;39.81;;
42701;Laerm;28316;49.504;8.526;2023-02-15T08:19:06;36.90;32.93;39.46;;
42701;Laerm;28316;49.504;8.526;2023-02-15T08:21:33;36.91;33.44;39.70;;
42701;Laerm;28316;49.504;8.526;2023-02-15T08:24:00;36.94;33.44;39.70;;
42701;Laerm;28316;49.504;8.526;2023-02-15T08:26:28;36.96;33.44;39.46;;
42701;Laerm;28316;49.504;8.526;2023-02-15T08:28:54;36.97;32.93;39.34;;
42701;Laerm;28316;49.504;8.526;2023-02-15T08:31:22;36.98;33.44;39.34;;
42701;Laerm;28316;49.504;8.526;2023-02-15T08:33:49;37.00;32.93;39.92;;
42701;Laerm;28316;49.504;8.526;2023-02-15T08:36:19;37.03;33.44;39.46;;
42701;Laerm;28316;49.504;8.526;2023-02-15T08:38:46;37.06;32.93;39.70;;
42701;Laerm;28316;49.504;8.526;2023-02-15T08:41:24;37.10;33.90;39.58;;
42701;Laerm;28316;49.504;8.526;2023-02-15T08:43:54;37.16;33.44;40.03;;
42701;Laerm;28316;49.504;8.526;2023-02-15T08:46:23;37.22;33.90;39.58;;
42701;Laerm;28316;49.504;8.526;2023-02-15T08:48:49;37.26;33.44;39.81;;
42701;Laerm;28316;49.504;8.526;2023-02-15T08:51:21;37.31;34.31;39.92;;
42701;Laerm;28316;49.504;8.526;2023-02-15T08:53:51;37.34;34.31;39.92;;
42701;Laerm;28316;49.504;8.526;2023-02-15T08:56:20;37.37;33.90;39.70;;
42701;Laerm;28316;49.504;8.526;2023-02-15T08:58:46;37.36;33.90;39.92;;
42701;Laerm;28316;49.504;8.526;2023-02-15T09:01:18;37.42;33.90;39.70;;
42701;Laerm;28316;49.504;8.526;2023-02-15T09:03:49;37.48;34.31;40.13;;
42701;Laerm;28316;49.504;8.526;2023-02-15T09:06:16;37.50;34.31;40.13;;
42701;Laerm;28316;49.504;8.526;2023-02-15T09:08:43;37.52;34.69;39.92;;
42701;Laerm;28316;49.504;8.526;2023-02-15T09:14:03;37.62;34.69;39.70;;
42701;Laerm;28316;49.504;8.526;2023-02-15T09:16:32;37.68;35.01;39.99;;
42701;Laerm;28316;49.504;8.526;2023-02-15T09:18:58;37.74;34.69;39.92;;
42701;Laerm;28316;49.504;8.526;2023-02-15T09:21:26;37.77;34.69;40.13;;
42701;Laerm;28316;49.504;8.526;2023-02-15T09:24:01;37.85;35.04;39.92;;
42701;Laerm;28316;49.504;8.526;2023-02-15T09:26:29;37.84;35.04;40.13;;
42701;Laerm;28316;49.504;8.526;2023-02-15T09:28:59;37.81;35.04;40.43;;
42701;Laerm;28316;49.504;8.526;2023-02-15T09:31:30;37.78;35.04;39.92;;
42701;Laerm;28316;49.504;8.526;2023-02-15T09:33:58;37.80;34.69;40.03;;
42701;Laerm;28316;49.504;8.526;2023-02-15T09:36:31;37.83;35.04;39.92;;
42701;Laerm;28316;49.504;8.526;2023-02-15T09:39:25;37.98;35.66;40.43;;
42701;Laerm;28316;49.504;8.526;2023-02-15T09:42:28;38.02;35.36;40.43;;
42701;Laerm;28316;49.504;8.526;2023-02-15T09:50:54;38.28;35.94;40.98;;
42701;Laerm;28316;49.504;8.526;2023-02-15T09:56:32;38.34;35.66;40.33;;
42701;Laerm;28316;49.504;8.526;2023-02-15T09:59:34;38.47;35.94;40.62;;
42701;Laerm;28316;49.504;8.526;2023-02-15T10:02:32;38.80;36.45;40.71;;
42701;Laerm;28316;49.504;8.526;2023-02-15T10:05:35;39.04;36.91;41.14;;
42701;Laerm;28316;49.504;8.526;2023-02-15T10:08:22;39.07;36.69;40.80;;
42701;Laerm;28316;49.504;8.526;2023-02-15T10:25:04;38.89;36.45;40.71;;
42701;Laerm;28316;49.504;8.526;2023-02-15T10:27:48;38.90;36.20;40.62;;
42701;Laerm;28316;49.504;8.526;2023-02-15T10:30:39;38.82;36.20;40.89;;
42701;Laerm;28316;49.504;8.526;2023-02-15T10:33:38;38.82;36.69;40.62;;
42701;Laerm;28316;49.504;8.526;2023-02-15T10:43:23;39.10;36.91;40.89;;
42701;Laerm;28316;49.504;8.526;2023-02-15T10:47:22;39.22;37.12;40.98;;
42701;Laerm;28316;49.504;8.526;2023-02-15T11:00:38;39.44;37.32;41.61;;
42701;Laerm;28316;49.504;8.526;2023-02-15T11:03:48;39.38;37.12;41.14;;
42701;Laerm;28316;49.504;8.526;2023-02-15T11:06:41;39.45;37.12;41.38;;
42701;Laerm;28316;49.504;8.526;2023-02-15T11:09:48;39.40;37.12;41.14;;
42701;Laerm;28316;49.504;8.526;2023-02-15T11:15:51;39.44;37.32;41.30;;
42701;Laerm;28316;49.504;8.526;2023-02-15T11:29:48;39.62;37.70;41.38;;
42701;Laerm;28316;49.504;8.526;2023-02-15T11:32:38;39.70;37.88;41.30;;
42701;Laerm;28316;49.504;8.526;2023-02-15T11:38:12;39.86;38.21;41.30;;
42701;Laerm;28316;49.504;8.526;2023-02-15T11:40:56;39.93;37.70;41.33;;
42701;Laerm;28316;49.504;8.526;2023-02-15T11:43:44;39.99;38.21;41.46;;
42701;Laerm;28316;49.504;8.526;2023-02-15T11:46:14;40.07;38.37;41.61;;
42701;Laerm;28316;49.504;8.526;2023-02-15T11:48:41;40.09;38.37;41.68;;
42701;Laerm;28316;49.504;8.526;2023-02-15T11:51:22;40.14;38.52;41.68;;
42701;Laerm;28316;49.504;8.526;2023-02-15T11:53:48;40.23;38.37;41.68;;
42701;Laerm;28316;49.504;8.526;2023-02-15T11:56:22;40.24;38.21;41.53;;
42701;Laerm;28316;49.504;8.526;2023-02-15T11:58:54;40.41;38.67;41.75;;
42701;Laerm;28316;49.504;8.526;2023-02-15T12:01:33;40.85;39.08;42.13;;
42701;Laerm;28316;49.504;8.526;2023-02-15T12:04:26;41.08;39.58;42.35;;
42701;Laerm;28316;49.504;8.526;2023-02-15T12:06:59;41.08;39.70;42.35;;
42701;Laerm;28316;49.504;8.526;2023-02-15T12:10:04;41.22;39.81;42.53;;
42701;Laerm;28316;49.504;8.526;2023-02-15T12:12:35;41.39;40.03;42.59;;
42701;Laerm;28316;49.504;8.526;2023-02-15T12:15:10;41.32;39.81;42.47;;
42701;Laerm;28316;49.504;8.526;2023-02-15T12:17:49;41.12;39.34;42.29;;
42701;Laerm;28316;49.504;8.526;2023-02-15T12:22:55;41.22;39.70;42.35;;
42701;Laerm;28316;49.504;8.526;2023-02-15T12:25:39;41.25;39.81;42.41;;
42701;Laerm;28316;49.504;8.526;2023-02-15T12:28:37;41.21;39.81;42.53;;
42701;Laerm;28316;49.504;8.526;2023-02-15T12:31:19;41.22;39.58;42.41;;
42701;Laerm;28316;49.504;8.526;2023-02-15T12:33:46;41.24;39.92;42.41;;
42701;Laerm;28316;49.504;8.526;2023-02-15T12:36:27;41.36;39.81;42.53;;
42701;Laerm;28316;49.504;8.526;2023-02-15T12:42:15;41.33;40.13;42.47;;
42701;Laerm;28316;49.504;8.526;2023-02-15T12:45:02;41.43;40.13;42.53;;
42701;Laerm;28316;49.504;8.526;2023-02-15T12:47:30;41.29;39.70;42.53;;
42701;Laerm;28316;49.504;8.526;2023-02-15T12:50:15;41.16;39.81;42.41;;
42701;Laerm;28316;49.504;8.526;2023-02-15T12:53:02;41.18;39.92;42.41;;
42701;Laerm;28316;49.504;8.526;2023-02-15T12:55:30;41.29;39.21;42.59;;
42701;Laerm;28316;49.504;8.526;2023-02-15T12:58:18;41.35;40.03;42.53;;
42701;Laerm;28316;49.504;8.526;2023-02-15T13:00:47;41.40;40.13;42.53;;
42701;Laerm;28316;49.504;8.526;2023-02-15T13:03:21;41.44;40.13;42.53;;
42701;Laerm;28316;49.504;8.526;2023-02-15T13:05:55;41.44;40.23;42.88;;
42701;Laerm;28316;49.504;8.526;2023-02-15T13:08:30;41.35;40.13;42.59;;
42701;Laerm;28316;49.504;8.526;2023-02-15T13:11:09;41.49;40.23;42.53;;
42701;Laerm;28316;49.504;8.526;2023-02-15T13:13:54;41.57;39.99;42.65;;
42701;Laerm;28316;49.504;8.526;2023-02-15T13:18:58;41.36;39.92;42.47;;
42701;Laerm;28316;49.504;8.526;2023-02-15T13:21:35;41.21;39.92;42.42;;
42701;Laerm;28316;49.504;8.526;2023-02-15T13:26:43;41.31;39.58;42.65;;
42701;Laerm;28316;49.504;8.526;2023-02-15T13:29:33;41.42;39.92;42.82;;
42701;Laerm;28316;49.504;8.526;2023-02-15T13:32:52;41.47;40.13;42.47;;
42701;Laerm;28316;49.504;8.526;2023-02-15T13:35:00;41.49;40.13;42.76;;
42701;Laerm;28316;49.504;8.526;2023-02-15T13:38:02;41.57;40.13;42.88;;
42701;Laerm;28316;49.504;8.526;2023-02-15T13:40:40;41.65;40.23;42.88;;
42701;Laerm;28316;49.504;8.526;2023-02-15T13:43:25;41.68;40.33;42.76;;
42701;Laerm;28316;49.504;8.526;2023-02-15T13:49:14;41.59;40.43;42.82;;
42701;Laerm;28316;49.504;8.526;2023-02-15T14:00:22;41.65;40.23;42.82;;
42701;Laerm;28316;49.504;8.526;2023-02-15T14:03:37;41.68;40.23;42.71;;
42701;Laerm;28316;49.504;8.526;2023-02-15T14:06:29;41.70;40.43;42.82;;
42701;Laerm;28316;49.504;8.526;2023-02-15T14:09:23;41.71;40.53;42.71;;
42701;Laerm;28316;49.504;8.526;2023-02-15T14:14:59;41.82;40.53;42.93;;
42701;Laerm;28316;49.504;8.526;2023-02-15T14:26:35;41.90;40.62;43.19;;
42701;Laerm;28316;49.504;8.526;2023-02-15T14:29:59;41.97;40.71;43.09;;
42701;Laerm;28316;49.504;8.526;2023-02-15T14:32:27;42.06;40.62;43.19;;
42701;Laerm;28316;49.504;8.526;2023-02-15T14:35:02;42.32;40.89;43.39;;
42701;Laerm;28316;49.504;8.526;2023-02-15T14:38:21;42.46;41.06;43.72;;
42701;Laerm;28316;49.504;8.526;2023-02-15T14:40:57;42.35;40.89;43.58;;
42701;Laerm;28316;49.504;8.526;2023-02-15T14:49:39;42.26;40.71;43.44;;
42701;Laerm;28316;49.504;8.526;2023-02-15T14:52:10;42.24;40.98;43.49;;
42701;Laerm;28316;49.504;8.526;2023-02-15T15:02:20;41.99;40.33;43.19;;
42701;Laerm;28316;49.504;8.526;2023-02-15T15:07:46;41.98;40.23;43.24;;
42701;Laerm;28316;49.504;8.526;2023-02-15T15:12:45;41.94;40.43;43.04;;
42701;Laerm;28316;49.504;8.526;2023-02-15T15:20:58;41.96;40.33;43.24;;
42701;Laerm;28316;49.504;8.526;2023-02-15T15:23:40;41.96;40.33;43.24;;
42701;Laerm;28316;49.504;8.526;2023-02-15T15:31:32;41.87;40.23;43.09;;
42701;Laerm;28316;49.504;8.526;2023-02-15T15:34:54;41.84;40.23;43.34;;
42701;Laerm;28316;49.504;8.526;2023-02-15T15:37:51;41.85;39.92;43.24;;
42701;Laerm;28316;49.504;8.526;2023-02-15T15:43:19;41.93;40.33;43.39;;
42701;Laerm;28316;49.504;8.526;2023-02-15T15:46:41;41.94;39.99;43.24;;
42701;Laerm;28316;49.504;8.526;2023-02-15T15:49:21;41.94;40.23;43.24;;
42701;Laerm;28316;49.504;8.526;2023-02-15T15:51:47;41.96;40.43;43.29;;
42701;Laerm;28316;49.504;8.526;2023-02-15T15:54:20;42.01;40.33;43.24;;
42701;Laerm;28316;49.504;8.526;2023-02-15T15:56:55;42.04;40.71;43.14;;
42701;Laerm;28316;49.504;8.526;2023-02-15T15:59:27;42.10;40.71;43.34;;
42701;Laerm;28316;49.504;8.526;2023-02-15T16:01:54;42.14;40.53;43.44;;
42701;Laerm;28316;49.504;8.526;2023-02-15T16:04:30;42.15;40.80;43.29;;
42701;Laerm;28316;49.504;8.526;2023-02-15T16:06:58;42.15;40.88;43.24;;
42701;Laerm;28316;49.504;8.526;2023-02-15T16:09:38;42.16;40.71;43.29;;
42701;Laerm;28316;49.504;8.526;2023-02-15T16:12:10;42.14;40.89;43.19;;
42701;Laerm;28316;49.504;8.526;2023-02-15T16:14:40;42.11;40.71;43.09;;
42701;Laerm;28316;49.504;8.526;2023-02-15T16:17:18;41.96;40.71;43.04;;
42701;Laerm;28316;49.504;8.526;2023-02-15T16:19:45;41.71;40.33;42.93;;
42701;Laerm;28316;49.504;8.526;2023-02-15T16:22:20;41.43;39.99;42.53;;
42701;Laerm;28316;49.504;8.526;2023-02-15T16:24:59;41.06;39.34;42.29;;
42701;Laerm;28316;49.504;8.526;2023-02-15T16:27:39;40.69;39.21;42.16;;
42701;Laerm;28316;49.504;8.526;2023-02-15T16:32:47;40.13;38.52;41.53;;
42701;Laerm;28316;49.504;8.526;2023-02-15T16:35:16;39.96;38.21;41.61;;
42701;Laerm;28316;49.504;8.526;2023-02-15T16:37:43;39.75;37.88;41.30;;
42701;Laerm;28316;49.504;8.526;2023-02-15T16:42:57;39.32;36.91;41.06;;
42701;Laerm;28316;49.504;8.526;2023-02-15T16:45:26;39.19;36.91;40.98;;
42701;Laerm;28316;49.504;8.526;2023-02-15T16:47:57;39.01;36.91;41.06;;
42701;Laerm;28316;49.504;8.526;2023-02-15T16:50:34;38.86;36.45;40.62;;
42701;Laerm;28316;49.504;8.526;2023-02-15T16:53:03;38.67;36.45;40.62;;
42701;Laerm;28316;49.504;8.526;2023-02-15T16:55:41;38.61;36.20;40.53;;
42701;Laerm;28316;49.504;8.526;2023-02-15T16:58:15;38.52;36.20;40.33;;
42701;Laerm;28316;49.504;8.526;2023-02-15T17:00:41;38.42;36.20;40.53;;
42701;Laerm;28316;49.504;8.526;2023-02-15T17:08:24;38.28;35.66;40.33;;
42701;Laerm;28316;49.504;8.526;2023-02-15T17:13:28;38.23;35.36;40.23;;